Flight Track Log - Related Links

Times and Time Zones

All times are in EDT time to prevent confusion due to time zone crossing. See the AWE18 flight status page for this flight to view local times or setup timezone preferences in your user account.

Time Position Orientation Groundspeed Altitude Reporting Facility
EDT Latitude Longitude Course Direction KTS MPH feet Rate Location/Type
Wed 12:54:27 AM 33.4410 -112.0340 272° West 166 191 2,500  Level FlightAware ADS-B
Wed 12:54:52 AM 33.4420 -112.0580 273° West 173 199 3,400 1,500 Climbing FlightAware ADS-B
Wed 12:55:07 AM 33.4430 -112.0710 275° West 188 216 3,500 533 Climbing FlightAware ADS-B
Wed 12:55:37 AM 33.4460 -112.1070 276° West 220 253 3,800 873 Climbing FlightAware ADS-B
Wed 12:56:02 AM 33.4480 -112.1370 275° West 239 275 4,300 1,418 Climbing FlightAware ADS-B
Wed 12:56:32 AM 33.4550 -112.1790 281° West 262 302 5,100 1,600 Climbing FlightAware ADS-B
Wed 12:56:47 AM 33.4660 -112.1980 305° West 280 322 5,500 1,920 Climbing FlightAware ADS-B
Wed 12:56:57 AM 33.4770 -112.2060 329° Northwest 290 334 5,900 2,160 Climbing FlightAware ADS-B
Wed 12:57:12 AM 33.4960 -112.2100 350° North 298 343 6,400 2,200 Climbing FlightAware ADS-B
Wed 12:57:27 AM 33.5170 -112.2020 18° North 301 346 7,000 2,200 Climbing FlightAware ADS-B
Wed 12:57:42 AM 33.5310 -112.1850 45° Northeast 301 346 7,500 2,200 Climbing FlightAware ADS-B
Wed 12:57:57 AM 33.5380 -112.1600 71° East 296 341 8,100 2,400 Climbing FlightAware ADS-B
Wed 12:58:22 AM 33.5430 -112.1240 81° East 295 339 9,100 2,250 Climbing FlightAware ADS-B
Wed 12:58:37 AM 33.5480 -112.0960 78° East 297 342 9,600 1,800 Climbing FlightAware ADS-B
Wed 12:59:22 AM 33.5600 -112.0230 79° East 316 364 10,900 1,275 Climbing FlightAware ADS-B
Wed 12:59:57 AM 33.5710 -111.9600 78° East 346 398 11,300 825 Climbing FlightAware ADS-B
Wed 01:00:42 AM 33.5860 -111.8700 79° East 383 441 12,000 1,200 Climbing FlightAware ADS-B
Wed 01:01:27 AM 33.6030 -111.7740 78° East 399 459 13,100 1,765 Climbing FlightAware ADS-B
Wed 01:02:07 AM 33.6170 -111.6920 78° East 398 458 14,500 2,100 Climbing FlightAware ADS-B
Wed 01:02:47 AM 33.6310 -111.6050 79° East 399 459 15,900 1,771 Climbing FlightAware ADS-B
Wed 01:03:52 AM 33.6540 -111.4710 78° East 408 470 17,600 1,304 Climbing FlightAware ADS-B
Wed 01:04:42 AM 33.6740 -111.3640 77° East 426 490 18,400 1,067 Climbing FlightAware ADS-B
Wed 01:05:22 AM 33.7150 -111.2720 62° Northeast 435 501 19,200 1,425 Climbing FlightAware ADS-B
Wed 01:06:02 AM 33.7560 -111.1820 61° Northeast 438 504 20,300 1,425 Climbing FlightAware ADS-B
Wed 01:06:42 AM 33.7990 -111.0890 61° Northeast 445 512 21,100 565 Climbing FlightAware ADS-B
Wed 01:07:27 AM 33.8390 -111.0020 61° Northeast 445 512 21,100 1,000 Level FlightAware ADS-B
Wed 01:08:12 AM 33.8760 -110.9220 61° Northeast 453 521 22,600 1,200 Climbing FlightAware ADS-B
Wed 01:09:02 AM 33.9270 -110.8120 61° Northeast 457 526 23,000 884 Climbing FlightAware ADS-B
Wed 01:09:47 AM 33.9760 -110.7040 61° Northeast 473 544 24,000 1,200 Climbing FlightAware ADS-B
Wed 01:10:22 AM 34.0180 -110.6130 61° Northeast 478 550 24,600 975 Climbing FlightAware ADS-B
Wed 01:11:07 AM 34.0670 -110.5050 61° Northeast 482 555 25,300 467 Climbing FlightAware ADS-B
Wed 01:11:52 AM 34.1090 -110.4130 61° Northeast 482 555 25,300 900 Level FlightAware ADS-B
Wed 01:12:27 AM 34.1540 -110.3140 61° Northeast 486 559 26,500 918 Climbing FlightAware ADS-B
Wed 01:13:17 AM 34.2000 -110.2130 61° Northeast 486 559 26,600 67 Climbing FlightAware ADS-B
Wed 01:13:57 AM 34.2370 -110.1320 61° Northeast 486 559 26,600  Level FlightAware ADS-B
Wed 01:14:37 AM 34.2740 -110.0510 61° Northeast 486 559 26,600  Level FlightAware ADS-B
Wed 01:15:17 AM 34.3110 -109.9700 61° Northeast 486 559 26,600  Level FlightAware ADS-B
Wed 01:16:07 AM 34.3570 -109.8690 61° Northeast 486 559 26,600 3,171 Level FlightAware ADS-B
Wed 01:16:27 AM 34.4114 -109.7397 61° Northeast 481 554 30,300 3,375 Climbing Albuquerque Center
Wed 01:17:27 AM 34.4831 -109.5800 61° Northeast 483 556 31,100 793 Climbing Albuquerque Center
Wed 01:18:28 AM 34.5436 -109.4411 62° Northeast 486 559 31,900 836 Climbing Albuquerque Center
Wed 01:19:29 AM 34.6036 -109.3044 62° Northeast 483 556 32,800 163 Climbing Albuquerque Center
Wed 01:25:12 AM 34.9660 -108.4710 62° Northeast 481 554 33,000 31 Climbing FlightAware ADS-B
Wed 01:25:57 AM 35.0110 -108.3640 63° Northeast 479 551 33,000  Level FlightAware ADS-B
Wed 01:26:37 AM 35.0520 -108.2690 62° Northeast 476 548 33,000  Level FlightAware ADS-B
Wed 01:27:17 AM 35.0930 -108.1740 62° Northeast 477 549 33,000  Level FlightAware ADS-B
Wed 01:28:02 AM 35.1390 -108.0650 63° Northeast 474 545 33,000  Level FlightAware ADS-B
Wed 01:28:42 AM 35.1800 -107.9680 63° Northeast 478 550 33,000  Level FlightAware ADS-B
Wed 01:29:37 AM 35.2330 -107.8430 63° Northeast 478 550 33,000  Level FlightAware ADS-B
Wed 01:30:22 AM 35.2780 -107.7350 63° Northeast 477 549 33,000  Level FlightAware ADS-B
Wed 01:30:57 AM 35.3160 -107.6450 63° Northeast 473 544 33,000  Level FlightAware ADS-B
Wed 01:32:02 AM 35.3800 -107.4910 63° Northeast 472 543 33,000  Level FlightAware ADS-B
Wed 01:32:42 AM 35.4200 -107.3950 63° Northeast 474 545 33,000  Level FlightAware ADS-B
Wed 01:33:22 AM 35.4610 -107.2960 63° Northeast 479 551 33,000  Level FlightAware ADS-B
Wed 01:34:02 AM 35.5010 -107.2000 63° Northeast 480 552 33,000  Level FlightAware ADS-B
Wed 01:34:47 AM 35.5460 -107.0910 63° Northeast 488 562 33,000 71 Level FlightAware ADS-B
Wed 01:35:27 AM 35.5850 -106.9970 63° Northeast 488 562 33,100 71 Climbing FlightAware ADS-B
Wed 01:36:12 AM 35.6330 -106.8780 64° Northeast 488 562 33,100 -71 Level FlightAware ADS-B
Wed 01:36:52 AM 35.6720 -106.7820 63° Northeast 488 562 33,000 -75 Descending FlightAware ADS-B
Wed 01:37:32 AM 35.7130 -106.6820 63° Northeast 474 545 33,000  Level FlightAware ADS-B
Wed 01:38:12 AM 35.7510 -106.5890 63° Northeast 472 543 33,000  Level FlightAware ADS-B
Wed 01:38:57 AM 35.7950 -106.4800 64° Northeast 471 542 33,000  Level FlightAware ADS-B
Wed 01:39:32 AM 35.8270 -106.4000 64° Northeast 470 541 33,000  Level FlightAware ADS-B
Wed 01:40:37 AM 35.8880 -106.2520 63° Northeast 470 541 33,000  Level FlightAware ADS-B
Wed 01:41:17 AM 35.9210 -106.1710 63° Northeast 470 541 33,000  Level FlightAware ADS-B
Wed 01:41:57 AM 35.9550 -106.0890 63° Northeast 470 541 33,000  Level FlightAware ADS-B
Wed 01:42:37 AM 35.9880 -106.0080 63° Northeast 470 541 33,000  Level FlightAware ADS-B
Wed 01:43:17 AM 36.0220 -105.9270 63° Northeast 470 541 33,000  Level FlightAware ADS-B
Wed 01:44:07 AM 36.0640 -105.8250 63° Northeast 470 541 33,000  Level FlightAware ADS-B
Wed 01:44:47 AM 36.0970 -105.7430 64° Northeast 470 541 33,000  Level FlightAware ADS-B
Wed 01:45:27 AM 36.1310 -105.6620 63° Northeast 470 541 33,000  Level FlightAware ADS-B
Wed 01:46:07 AM 36.1640 -105.5800 63° Northeast 470 541 33,000  Level FlightAware ADS-B
Wed 01:46:47 AM 36.1980 -105.4980 63° Northeast 470 541 33,000  Level FlightAware ADS-B
Wed 01:47:37 AM 36.2400 -105.3960 63° Northeast 470 541 33,000  Level FlightAware ADS-B
Wed 01:48:17 AM 36.2740 -105.3150 62° Northeast 470 541 33,000  Level FlightAware ADS-B
Wed 01:48:57 AM 36.3070 -105.2330 63° Northeast 470 541 33,000  Level FlightAware ADS-B
Wed 01:49:37 AM 36.3410 -105.1510 63° Northeast 470 541 33,000 57 Level FlightAware ADS-B
Wed 01:50:43 AM 36.4750 -104.7511 63° Northeast 477 549 33,100 47 Climbing Albuquerque Center
Wed 01:51:44 AM 36.5325 -104.5992 65° Northeast 480 552 33,100 -50 Level Albuquerque Center
Wed 01:52:44 AM 36.5911 -104.4461 64° Northeast 483 556 33,000 -50 Descending Albuquerque Center
Wed 01:53:45 AM 36.6478 -104.2950 65° Northeast 479 551 33,000  Level Albuquerque Center
Wed 01:54:45 AM 36.7006 -104.1564 65° Northeast 478 550 33,000  Level Albuquerque Center
Wed 01:55:45 AM 36.7558 -104.0125 64° Northeast 481 554 33,000  Level Albuquerque Center
Wed 01:56:46 AM 36.8181 -103.8433 65° Northeast 482 555 33,000  Level Albuquerque Center
Wed 01:57:46 AM 36.8711 -103.6992 65° Northeast 480 552 33,000  Level Albuquerque Center
Wed 01:58:46 AM 36.9247 -103.5533 65° Northeast 483 556 33,000  Level Albuquerque Center
Wed 01:59:46 AM 36.9864 -103.3861 65° Northeast 478 550 33,000  Level Albuquerque Center
Wed 02:00:47 AM 37.0394 -103.2417 65° Northeast 479 551 33,000  Level Albuquerque Center
Wed 02:01:47 AM 37.0922 -103.0950 66° East 482 555 33,000  Level Albuquerque Center
Wed 02:02:47 AM 37.1525 -102.9272 66° East 477 549 33,000  Level Albuquerque Center
Wed 02:03:47 AM 37.2050 -102.7833 65° Northeast 476 548 33,000  Level Albuquerque Center
Wed 02:04:48 AM 37.2569 -102.6403 65° Northeast 472 543 33,000  Level Albuquerque Center
Wed 02:05:48 AM 37.3081 -102.4956 66° East 473 544 33,000  Level Albuquerque Center
Wed 02:06:48 AM 37.3678 -102.3267 66° East 473 544 33,000 50 Level Albuquerque Center
Wed 02:07:48 AM 37.4214 -102.1764 66° East 475 547 33,100 50 Climbing Albuquerque Center
Wed 02:08:49 AM 37.4703 -102.0308 67° East 473 544 33,100 -50 Level Albuquerque Center
Wed 02:09:49 AM 37.5217 -101.8861 66° East 473 544 33,000 -57 Descending Albuquerque Center
Wed 02:10:34 AM 37.5639 -101.7650 66° East 472 543 33,000 -171 Level Kansas City Center
Wed 02:11:34 AM 37.6136 -101.6194 67° East 471 542 32,700 -600 Descending Kansas City Center
Wed 02:12:34 AM 37.6644 -101.4739 66° East 473 544 31,800 -850 Descending Kansas City Center
Wed 02:13:34 AM 37.7236 -101.3025 66° East 475 547 31,000 -400 Descending Kansas City Center
Wed 02:14:34 AM 37.7742 -101.1525 67° East 479 551 31,000  Level Kansas City Center
Wed 02:15:35 AM 37.8256 -101.0025 67° East 479 551 31,000  Level Kansas City Center
Wed 02:16:35 AM 37.8767 -100.8508 67° East 481 554 31,000  Level Kansas City Center
Wed 02:17:35 AM 37.9258 -100.6694 71° East 482 555 31,000  Level Kansas City Center
Wed 02:18:35 AM 37.9639 -100.5139 73° East 482 555 31,000  Level Kansas City Center
Wed 02:19:35 AM 38.0022 -100.3600 72° East 479 551 31,000  Level Kansas City Center
Wed 02:20:36 AM 38.0406 -100.2047 73° East 480 552 31,000  Level Kansas City Center
Wed 02:21:36 AM 38.0839 -100.0239 73° East 479 551 31,000  Level Kansas City Center
Wed 02:22:36 AM 38.1211 -99.8697 73° East 477 549 31,000  Level Kansas City Center
Wed 02:23:36 AM 38.1594 -99.7161 72° East 477 549 31,000  Level Kansas City Center
Wed 02:24:37 AM 38.1961 -99.5611 73° East 478 550 31,000  Level Kansas City Center
Wed 02:25:37 AM 38.2381 -99.3928 72° East 480 552 31,000  Level Kansas City Center
Wed 02:26:37 AM 38.2756 -99.2306 74° East 479 551 31,000  Level Kansas City Center
Wed 02:27:37 AM 38.3147 -99.0678 73° East 480 552 31,000  Level Kansas City Center
Wed 02:28:37 AM 38.3531 -98.9047 73° East 479 551 31,000  Level Kansas City Center
Wed 02:29:38 AM 38.3933 -98.7397 73° East 485 558 31,000  Level Kansas City Center
Wed 02:30:38 AM 38.4319 -98.5769 73° East 480 552 31,000  Level Kansas City Center
Wed 02:31:38 AM 38.4694 -98.4147 74° East 476 548 31,000  Level Kansas City Center
Wed 02:37:47 AM 38.6930 -97.4170 74° East 470 541 31,000  Level FlightAware ADS-B
Wed 02:38:22 AM 38.7120 -97.3320 74° East 470 541 31,000  Level FlightAware ADS-B
Wed 02:39:12 AM 38.7380 -97.2190 74° East 470 541 31,000  Level FlightAware ADS-B
Wed 02:39:52 AM 38.7580 -97.1270 74° East 470 541 31,000  Level FlightAware ADS-B
Wed 02:40:32 AM 38.7780 -97.0360 74° East 470 541 31,000  Level FlightAware ADS-B
Wed 02:41:12 AM 38.7990 -96.9450 73° East 470 541 31,000  Level FlightAware ADS-B
Wed 02:41:52 AM 38.8190 -96.8540 74° East 470 541 31,000  Level FlightAware ADS-B
Wed 02:42:32 AM 38.8390 -96.7630 74° East 470 541 31,000  Level FlightAware ADS-B
Wed 02:43:22 AM 38.8650 -96.6490 74° East 470 541 31,000  Level FlightAware ADS-B
Wed 02:44:02 AM 38.8850 -96.5570 74° East 470 541 31,000  Level FlightAware ADS-B
Wed 02:44:42 AM 38.9060 -96.4660 73° East 470 541 31,000  Level FlightAware ADS-B
Wed 02:45:22 AM 38.9260 -96.3750 74° East 470 541 31,000  Level FlightAware ADS-B
Wed 02:46:12 AM 38.9510 -96.2600 74° East 470 541 31,000  Level FlightAware ADS-B
Wed 02:46:52 AM 38.9720 -96.1690 73° East 470 541 31,000  Level FlightAware ADS-B
Wed 02:47:32 AM 38.9920 -96.0780 74° East 470 541 31,000  Level FlightAware ADS-B
Wed 02:48:12 AM 39.0000 -95.9740 84° East 31,000  Level FlightAware ADS-B
Wed 02:49:07 AM 39.0810 -95.5790 75° East 469 540 31,000  Level FlightAware ADS-B
Wed 02:49:57 AM 39.0420 -95.7700 255° West 469 540 31,000  Level FlightAware ADS-B
Wed 02:50:37 AM 39.0820 -95.5710 75° East 470 541 31,000  Level FlightAware ADS-B
Wed 02:51:17 AM 39.1050 -95.4590 75° East 469 540 31,000  Level FlightAware ADS-B
Wed 02:52:02 AM 39.1270 -95.3500 75° East 468 539 31,000  Level FlightAware ADS-B
Wed 02:52:42 AM 39.1410 -95.2760 76° East 467 537 31,000  Level FlightAware ADS-B
Wed 02:53:22 AM 39.1610 -95.1760 76° East 466 536 31,000  Level FlightAware ADS-B
Wed 02:54:07 AM 39.1760 -95.1000 76° East 465 535 31,000  Level FlightAware ADS-B
Wed 02:54:47 AM 39.1890 -95.0330 76° East 465 535 31,000  Level FlightAware ADS-B
Wed 02:55:32 AM 39.2040 -94.9570 76° East 466 536 31,000  Level FlightAware ADS-B
Wed 02:56:12 AM 39.2160 -94.8960 76° East 466 536 31,000  Level FlightAware ADS-B
Wed 02:56:52 AM 39.3260 -94.3270 76° East 465 535 31,000  Level FlightAware ADS-B
Wed 02:57:37 AM 39.3490 -94.2030 76° East 466 536 31,000  Level FlightAware ADS-B
Wed 02:58:17 AM 39.3700 -94.0950 76° East 464 534 31,000  Level FlightAware ADS-B
Wed 02:58:57 AM 39.3900 -93.9870 76° East 464 534 31,000  Level FlightAware ADS-B
Wed 02:59:42 AM 39.4120 -93.8670 77° East 464 534 31,000  Level FlightAware ADS-B
Wed 03:00:22 AM 39.4320 -93.7600 76° East 463 533 31,000  Level FlightAware ADS-B
Wed 03:01:07 AM 39.4550 -93.6360 76° East 464 534 31,000  Level FlightAware ADS-B
Wed 03:01:47 AM 39.4750 -93.5270 77° East 463 533 31,000  Level FlightAware ADS-B
Wed 03:02:32 AM 39.4960 -93.4110 77° East 463 533 31,000  Level FlightAware ADS-B
Wed 03:03:07 AM 39.5130 -93.3160 77° East 462 532 31,000  Level FlightAware ADS-B
Wed 03:03:52 AM 39.5350 -93.1950 77° East 461 531 31,000  Level FlightAware ADS-B
Wed 03:04:37 AM 39.5570 -93.0730 77° East 460 529 31,000  Level FlightAware ADS-B
Wed 03:05:27 AM 39.5790 -92.9490 77° East 460 529 31,000  Level FlightAware ADS-B
Wed 03:06:17 AM 39.6030 -92.8120 77° East 460 529 31,000  Level FlightAware ADS-B
Wed 03:06:57 AM 39.6190 -92.7200 77° East 460 529 31,000  Level FlightAware ADS-B
Wed 03:07:37 AM 39.6410 -92.5910 77° East 469 540 31,000  Level FlightAware ADS-B
Wed 03:08:22 AM 39.6640 -92.4620 77° East 468 539 31,000  Level FlightAware ADS-B
Wed 03:08:57 AM 39.6790 -92.3720 78° East 468 539 31,000  Level FlightAware ADS-B
Wed 03:09:42 AM 39.7010 -92.2440 77° East 468 539 31,000  Level FlightAware ADS-B
Wed 03:10:22 AM 39.7190 -92.1350 78° East 468 539 31,000  Level FlightAware ADS-B
Wed 03:11:07 AM 39.7410 -92.0080 77° East 468 539 31,000  Level FlightAware ADS-B
Wed 03:11:47 AM 39.7590 -91.8980 78° East 469 540 31,000  Level FlightAware ADS-B
Wed 03:12:32 AM 39.7790 -91.7760 78° East 469 540 31,000  Level FlightAware ADS-B
Wed 03:13:27 AM 39.8040 -91.6330 77° East 469 540 31,000  Level FlightAware ADS-B
Wed 03:14:12 AM 39.8230 -91.5110 78° East 466 536 31,000  Level FlightAware ADS-B
Wed 03:14:52 AM 39.8420 -91.3920 78° East 469 540 31,000  Level FlightAware ADS-B
Wed 03:15:32 AM 39.8600 -91.2800 78° East 469 540 31,000  Level FlightAware ADS-B
Wed 03:16:17 AM 39.8800 -91.1590 78° East 467 537 31,000  Level FlightAware ADS-B
Wed 03:16:57 AM 39.8980 -91.0440 78° East 465 535 31,000  Level FlightAware ADS-B
Wed 03:17:42 AM 39.9170 -90.9230 78° East 464 534 31,000  Level FlightAware ADS-B
Wed 03:18:22 AM 39.9340 -90.8160 78° East 463 533 31,000  Level FlightAware ADS-B
Wed 03:19:02 AM 39.9510 -90.7050 79° East 463 533 31,000  Level FlightAware ADS-B
Wed 03:19:42 AM 39.9690 -90.5950 78° East 463 533 31,000  Level FlightAware ADS-B
Wed 03:20:17 AM 39.9830 -90.5040 79° East 462 532 31,000  Level FlightAware ADS-B
Wed 03:21:07 AM 40.0050 -90.3590 79° East 462 532 31,000  Level FlightAware ADS-B
Wed 03:21:52 AM 40.0230 -90.2410 79° East 461 531 31,000  Level FlightAware ADS-B
Wed 03:22:32 AM 40.0390 -90.1310 79° East 462 532 31,000  Level FlightAware ADS-B
Wed 03:23:12 AM 40.0560 -90.0200 79° East 462 532 31,000  Level FlightAware ADS-B
Wed 03:23:57 AM 40.0740 -89.8970 79° East 462 532 31,000  Level FlightAware ADS-B
Wed 03:24:37 AM 40.0910 -89.7850 79° East 462 532 31,000  Level FlightAware ADS-B
Wed 03:25:22 AM 40.1080 -89.6660 79° East 461 531 31,000  Level FlightAware ADS-B
Wed 03:26:02 AM 40.1240 -89.5560 79° East 460 529 31,000  Level FlightAware ADS-B
Wed 03:26:42 AM 40.1400 -89.4460 79° East 460 529 31,000  Level FlightAware ADS-B
Wed 03:27:27 AM 40.1570 -89.3250 80° East 460 529 31,000  Level FlightAware ADS-B
Wed 03:28:07 AM 40.1730 -89.2170 79° East 460 529 31,000  Level FlightAware ADS-B
Wed 03:28:52 AM 40.1910 -89.0900 79° East 460 529 31,000  Level FlightAware ADS-B
Wed 03:29:32 AM 40.2060 -88.9810 80° East 460 529 31,000  Level FlightAware ADS-B
Wed 03:30:12 AM 40.2220 -88.8690 79° East 461 531 31,000  Level FlightAware ADS-B
Wed 03:30:57 AM 40.2380 -88.7490 80° East 461 531 31,000  Level FlightAware ADS-B
Wed 03:31:37 AM 40.2530 -88.6390 80° East 461 531 31,000  Level FlightAware ADS-B
Wed 03:32:17 AM 40.2680 -88.5310 80° East 461 531 31,000  Level FlightAware ADS-B
Wed 03:33:02 AM 40.2850 -88.4020 80° East 462 532 31,000  Level FlightAware ADS-B
Wed 03:33:42 AM 40.3000 -88.2920 80° East 462 532 31,000  Level FlightAware ADS-B
Wed 03:34:27 AM 40.3160 -88.1720 80° East 462 532 31,000  Level FlightAware ADS-B
Wed 03:35:07 AM 40.3310 -88.0620 80° East 463 533 31,000  Level FlightAware ADS-B
Wed 03:35:47 AM 40.3450 -87.9510 81° East 462 532 31,000  Level FlightAware ADS-B
Wed 03:36:32 AM 40.3610 -87.8280 80° East 461 531 31,000  Level FlightAware ADS-B
Wed 03:37:17 AM 40.3780 -87.7010 80° East 460 529 31,000  Level FlightAware ADS-B
Wed 03:37:57 AM 40.3920 -87.5890 81° East 461 531 31,000  Level FlightAware ADS-B
Wed 03:38:42 AM 40.4070 -87.4700 81° East 459 528 31,000  Level FlightAware ADS-B
Wed 03:39:17 AM 40.4190 -87.3700 81° East 459 528 31,000  Level FlightAware ADS-B
Wed 03:40:07 AM 40.4350 -87.2420 81° East 458 527 31,000  Level FlightAware ADS-B
Wed 03:40:47 AM 40.4480 -87.1350 81° East 457 526 31,000  Level FlightAware ADS-B
Wed 03:41:27 AM 40.4630 -87.0150 81° East 457 526 31,000  Level FlightAware ADS-B
Wed 03:42:12 AM 40.4780 -86.8920 81° East 456 525 31,000  Level FlightAware ADS-B
Wed 03:42:52 AM 40.4910 -86.7850 81° East 455 524 31,000  Level FlightAware ADS-B
Wed 03:43:32 AM 40.5040 -86.6740 81° East 454 522 31,000  Level FlightAware ADS-B
Wed 03:44:17 AM 40.5190 -86.5520 81° East 454 522 31,000  Level FlightAware ADS-B
Wed 03:44:57 AM 40.5320 -86.4400 81° East 456 525 31,000  Level FlightAware ADS-B
Wed 03:45:42 AM 40.5460 -86.3180 81° East 456 525 31,000  Level FlightAware ADS-B
Wed 03:46:22 AM 40.5580 -86.2110 82° East 459 528 31,000  Level FlightAware ADS-B
Wed 03:47:02 AM 40.5710 -86.1010 81° East 459 528 31,000  Level FlightAware ADS-B
Wed 03:47:47 AM 40.5850 -85.9710 82° East 459 528 31,000  Level FlightAware ADS-B
Wed 03:48:27 AM 40.5980 -85.8620 81° East 459 528 31,000  Level FlightAware ADS-B
Wed 03:49:12 AM 40.6100 -85.7490 82° East 458 527 31,000  Level FlightAware ADS-B
Wed 03:49:52 AM 40.6230 -85.6310 82° East 458 527 31,000  Level FlightAware ADS-B
Wed 03:50:32 AM 40.6350 -85.5180 82° East 452 520 31,000  Level FlightAware ADS-B
Wed 03:51:07 AM 40.6460 -85.4220 81° East 453 521 31,000 635 Level FlightAware ADS-B
Wed 03:51:57 AM 40.6600 -85.2850 82° East 453 521 31,900 1,200 Climbing FlightAware ADS-B
Wed 03:52:42 AM 40.6730 -85.1680 82° East 444 511 32,900 1,271 Climbing FlightAware ADS-B
Wed 03:53:22 AM 40.6840 -85.0610 82° East 441 507 33,700 1,200 Climbing FlightAware ADS-B
Wed 03:54:02 AM 40.6950 -84.9510 82° East 435 501 34,500 918 Climbing FlightAware ADS-B
Wed 03:54:47 AM 40.7070 -84.8360 82° East 435 501 35,000 353 Climbing FlightAware ADS-B
Wed 03:55:27 AM 40.7180 -84.7280 82° East 439 505 35,000  Level FlightAware ADS-B
Wed 03:56:12 AM 40.7300 -84.6160 82° East 442 509 35,000  Level FlightAware ADS-B
Wed 03:56:52 AM 40.7500 -84.5060 76° East 441 507 35,000  Level FlightAware ADS-B
Wed 03:57:32 AM 40.7690 -84.4020 76° East 440 506 35,000  Level FlightAware ADS-B
Wed 03:58:17 AM 40.7900 -84.2820 77° East 439 505 35,000  Level FlightAware ADS-B
Wed 03:58:57 AM 40.8090 -84.1760 77° East 439 505 35,000  Level FlightAware ADS-B
Wed 03:59:42 AM 40.8290 -84.0630 77° East 440 506 35,000  Level FlightAware ADS-B
Wed 04:00:22 AM 40.8480 -83.9570 77° East 441 507 35,000  Level FlightAware ADS-B
Wed 04:01:02 AM 40.8660 -83.8530 77° East 442 509 35,000  Level FlightAware ADS-B
Wed 04:01:47 AM 40.8880 -83.7310 77° East 444 511 35,000  Level FlightAware ADS-B
Wed 04:02:27 AM 40.9060 -83.6250 77° East 443 510 35,000  Level FlightAware ADS-B
Wed 04:03:12 AM 40.9200 -83.5060 81° East 450 518 35,000  Level FlightAware ADS-B
Wed 04:03:52 AM 40.9280 -83.4000 84° East 452 520 35,000  Level FlightAware ADS-B
Wed 04:04:37 AM 40.9380 -83.2720 84° East 452 520 35,000  Level FlightAware ADS-B
Wed 04:05:17 AM 40.9460 -83.1620 84° East 454 522 35,000  Level FlightAware ADS-B
Wed 04:05:57 AM 40.9540 -83.0540 84° East 455 524 35,000  Level FlightAware ADS-B
Wed 04:06:42 AM 40.9640 -82.9290 84° East 456 525 35,000  Level FlightAware ADS-B
Wed 04:07:22 AM 40.9720 -82.8170 85° East 457 526 35,000  Level FlightAware ADS-B
Wed 04:08:02 AM 40.9800 -82.7070 84° East 457 526 35,000  Level FlightAware ADS-B
Wed 04:08:47 AM 40.9890 -82.5780 85° East 458 527 35,000  Level FlightAware ADS-B
Wed 04:09:27 AM 40.9970 -82.4660 85° East 457 526 35,000  Level FlightAware ADS-B
Wed 04:10:07 AM 41.0050 -82.3570 84° East 458 527 35,000  Level FlightAware ADS-B
Wed 04:10:52 AM 41.0140 -82.2280 85° East 457 526 35,000  Level FlightAware ADS-B
Wed 04:11:32 AM 41.0210 -82.1220 85° East 456 525 35,000  Level FlightAware ADS-B
Wed 04:12:17 AM 41.0290 -81.9940 85° East 456 525 35,000  Level FlightAware ADS-B
Wed 04:12:57 AM 41.0370 -81.8830 85° East 456 525 35,000  Level FlightAware ADS-B
Wed 04:13:42 AM 41.0450 -81.7600 85° East 458 527 35,000  Level FlightAware ADS-B
Wed 04:14:22 AM 41.0520 -81.6430 85° East 459 528 35,000  Level FlightAware ADS-B
Wed 04:15:07 AM 41.0600 -81.5200 85° East 459 528 35,000  Level FlightAware ADS-B
Wed 04:15:47 AM 41.0670 -81.4060 85° East 459 528 35,000  Level FlightAware ADS-B
Wed 04:16:27 AM 41.0740 -81.2950 85° East 459 528 35,000  Level FlightAware ADS-B
Wed 04:17:12 AM 41.0810 -81.1710 86° East 460 529 35,000  Level FlightAware ADS-B
Wed 04:17:52 AM 41.0880 -81.0550 85° East 460 529 35,000  Level FlightAware ADS-B
Wed 04:18:32 AM 41.0940 -80.9470 86° East 460 529 35,000  Level FlightAware ADS-B
Wed 04:19:17 AM 41.1010 -80.8180 86° East 459 528 35,000  Level FlightAware ADS-B
Wed 04:19:57 AM 41.1070 -80.7060 86° East 460 529 35,000  Level FlightAware ADS-B
Wed 04:20:37 AM 41.1140 -80.5940 85° East 460 529 35,000  Level FlightAware ADS-B
Wed 04:21:22 AM 41.1200 -80.4700 86° East 459 528 35,000  Level FlightAware ADS-B
Wed 04:22:02 AM 41.1260 -80.3530 86° East 459 528 35,000  Level FlightAware ADS-B
Wed 04:22:47 AM 41.1330 -80.2300 86° East 456 525 35,000  Level FlightAware ADS-B
Wed 04:23:27 AM 41.1380 -80.1180 87° East 455 524 35,000  Level FlightAware ADS-B
Wed 04:24:02 AM 41.1430 -80.0280 86° East 455 524 35,000  Level FlightAware ADS-B
Wed 04:24:52 AM 41.1490 -79.9020 86° East 456 525 35,000  Level FlightAware ADS-B
Wed 04:25:32 AM 41.1540 -79.7900 87° East 457 526 35,000  Level FlightAware ADS-B
Wed 04:26:12 AM 41.1590 -79.6760 87° East 457 526 35,000  Level FlightAware ADS-B
Wed 04:26:52 AM 41.1640 -79.5690 86° East 458 527 35,000  Level FlightAware ADS-B
Wed 04:27:37 AM 41.1700 -79.4390 86° East 459 528 35,000  Level FlightAware ADS-B
Wed 04:28:12 AM 41.1740 -79.3400 87° East 460 529 35,000  Level FlightAware ADS-B
Wed 04:29:07 AM 41.1810 -79.1870 86° East 460 529 35,000  Level FlightAware ADS-B
Wed 04:29:42 AM 41.1850 -79.0830 87° East 460 529 35,000  Level FlightAware ADS-B
Wed 04:30:22 AM 41.1890 -78.9750 87° East 460 529 35,000  Level FlightAware ADS-B
Wed 04:31:07 AM 41.1940 -78.8470 87° East 461 531 35,000  Level FlightAware ADS-B
Wed 04:31:52 AM 41.1990 -78.7210 87° East 460 529 35,000  Level FlightAware ADS-B
Wed 04:32:47 AM 41.2050 -78.5700 87° East 459 528 35,000  Level FlightAware ADS-B
Wed 04:33:32 AM 41.2090 -78.4350 88° East 458 527 35,000  Level FlightAware ADS-B
Wed 04:34:12 AM 41.2130 -78.3230 87° East 458 527 35,000  Level FlightAware ADS-B
Wed 04:34:52 AM 41.2170 -78.2100 87° East 458 527 35,000  Level FlightAware ADS-B
Wed 04:35:03 AM 41.2187 -78.1579 87° East 456 525 35,000  Level FlightAware ADS-B
Wed 04:35:37 AM 41.2210 -78.0900 87° East 456 525 35,000  Level FlightAware ADS-B
Wed 04:36:32 AM 41.2260 -77.9360 87° East 455 524 35,000  Level FlightAware ADS-B
Wed 04:36:55 AM 41.2285 -77.8438 88° East 455 524 35,000  Level FlightAware ADS-B
Wed 04:37:26 AM 41.2310 -77.7571 88° East 455 524 35,000  Level FlightAware ADS-B
Wed 04:38:22 AM 41.2350 -77.6260 88° East 455 524 35,000  Level FlightAware ADS-B
Wed 04:38:32 AM 41.2362 -77.5738 88° East 454 522 35,000  Level FlightAware ADS-B
Wed 04:39:07 AM 41.2380 -77.5030 88° East 454 522 35,000  Level FlightAware ADS-B
Wed 04:39:35 AM 41.2408 -77.3990 88° East 455 524 35,000  Level FlightAware ADS-B
Wed 04:40:07 AM 41.2431 -77.3104 88° East 456 525 35,000  Level FlightAware ADS-B
Wed 04:40:38 AM 41.2452 -77.2236 88° East 456 525 35,000  Level FlightAware ADS-B
Wed 04:41:09 AM 41.2474 -77.1345 88° East 458 527 35,000  Level FlightAware ADS-B
Wed 04:41:40 AM 41.2494 -77.0481 88° East 458 527 35,000  Level FlightAware ADS-B
Wed 04:42:10 AM 41.2514 -76.9629 88° East 458 527 35,000  Level FlightAware ADS-B
Wed 04:42:41 AM 41.2533 -76.8773 88° East 458 527 35,000  Level FlightAware ADS-B
Wed 04:43:12 AM 41.2551 -76.7906 88° East 458 527 35,000  Level FlightAware ADS-B
Wed 04:43:43 AM 41.2567 -76.7048 89° East 449 517 35,000  Level FlightAware ADS-B
Wed 04:44:03 AM 41.2572 -76.6495 89° East 450 518 35,000  Level FlightAware ADS-B
Wed 04:44:23 AM 41.2546 -76.5940 94° East 451 519 35,000  Level FlightAware ADS-B
Wed 04:44:53 AM 41.2482 -76.5112 96° East 449 517 35,000  Level FlightAware ADS-B
Wed 04:45:23 AM 41.2419 -76.4280 96° East 450 518 35,000  Level FlightAware ADS-B
Wed 04:45:53 AM 41.2356 -76.3454 96° East 450 518 35,000  Level FlightAware ADS-B
Wed 04:46:24 AM 41.2291 -76.2618 96° East 451 519 35,000  Level FlightAware ADS-B
Wed 04:46:54 AM 41.2226 -76.1788 96° East 451 519 35,000 -200 Level FlightAware ADS-B
Wed 04:47:24 AM 41.2160 -76.0962 96° East 448 516 34,800 -1,700 Descending FlightAware ADS-B
Wed 04:47:54 AM 41.2094 -76.0121 96° East 459 528 33,300 -3,100 Descending FlightAware ADS-B
Wed 04:48:24 AM 41.2025 -75.9279 96° East 457 526 31,700 -2,852 Descending FlightAware ADS-B
Wed 04:48:55 AM 41.1958 -75.8451 96° East 448 516 30,400 -2,459 Descending FlightAware ADS-B
Wed 04:49:25 AM 41.1891 -75.7628 96° East 442 509 29,200 -2,262 Descending FlightAware ADS-B
Wed 04:49:56 AM 41.1823 -75.6804 96° East 436 502 28,100 -2,262 Descending FlightAware ADS-B
Wed 04:50:26 AM 41.1756 -75.6005 96° East 430 495 26,900 -2,361 Descending FlightAware ADS-B
Wed 04:50:57 AM 41.1688 -75.5201 96° East 423 487 25,700 -2,262 Descending FlightAware ADS-B
Wed 04:51:27 AM 41.1622 -75.4435 97° East 417 480 24,600 -2,136 Descending FlightAware ADS-B
Wed 04:51:56 AM 41.1561 -75.3717 96° East 410 472 23,600 -2,167 Descending FlightAware ADS-B
Wed 04:52:03 AM 41.1541 -75.3541 99° East 410 472 23,300 -1,765 Descending FlightAware ADS-B
Wed 04:52:13 AM 41.1497 -75.3295 103° East 412 474 23,100 -706 Descending FlightAware ADS-B
Wed 04:52:20 AM 41.1452 -75.3119 109° East 416 479 23,100 -162 Level FlightAware ADS-B
Wed 04:52:50 AM 41.1220 -75.2414 114° Southeast 415 478 23,000 -98 Descending FlightAware ADS-B
Wed 04:53:21 AM 41.0980 -75.1700 114° Southeast 415 478 23,000 -98 Level FlightAware ADS-B
Wed 04:53:51 AM 41.0743 -75.1000 114° Southeast 411 473 22,900 -984 Descending FlightAware ADS-B
Wed 04:54:22 AM 41.0505 -75.0299 114° Southeast 409 471 22,000 -1,180 Descending FlightAware ADS-B
Wed 04:54:52 AM 41.0270 -74.9614 114° Southeast 401 461 21,700 -508 Descending FlightAware ADS-B
Wed 04:55:21 AM 41.0048 -74.8962 114° Southeast 399 459 21,500 -450 Descending FlightAware ADS-B
Wed 04:55:32 AM 40.9982 -74.8723 110° East 398 458 21,400 -400 Descending FlightAware ADS-B
Wed 04:55:36 AM 40.9959 -74.8616 106° East 396 456 21,400 -514 Level FlightAware ADS-B
Wed 04:56:07 AM 40.9871 -74.7893 99° East 393 452 21,100 -492 Descending FlightAware ADS-B
Wed 04:56:37 AM 40.9793 -74.7177 98° East 394 453 20,900 -400 Descending FlightAware ADS-B
Wed 04:57:07 AM 40.9714 -74.6455 98° East 395 455 20,700 -462 Descending FlightAware ADS-B
Wed 04:57:16 AM 40.9691 -74.6246 98° East 394 453 20,600 -600 Descending FlightAware ADS-B
Wed 04:57:37 AM 40.9635 -74.5737 98° East 392 451 20,400 -490 Descending FlightAware ADS-B
Wed 04:58:05 AM 40.9564 -74.5085 98° East 388 447 20,200 -407 Descending FlightAware ADS-B
Wed 04:58:36 AM 40.9483 -74.4359 98° East 387 445 20,000 -393 Descending FlightAware ADS-B
Wed 04:59:06 AM 40.9405 -74.3656 98° East 387 445 19,800 -480 Descending FlightAware ADS-B
Wed 04:59:26 AM 40.9352 -74.3191 99° East 389 448 19,600 -750 Descending FlightAware ADS-B
Wed 04:59:30 AM 40.9336 -74.3086 101° East 390 449 19,500 -2,250 Descending FlightAware ADS-B
Wed 04:59:34 AM 40.9321 -74.3009 104° East 393 452 19,300 -2,667 Descending FlightAware ADS-B
Wed 04:59:39 AM 40.9289 -74.2882 108° East 395 455 19,100 -500 Descending FlightAware ADS-B
Wed 05:00:10 AM 40.9058 -74.2216 115° Southeast 392 451 19,000 -98 Descending FlightAware ADS-B
Wed 05:00:40 AM 40.8835 -74.1565 114° Southeast 388 447 19,000  Level FlightAware ADS-B
Wed 05:00:52 AM 40.8747 -74.1308 114° Southeast 387 445 19,000  Level FlightAware ADS-B
Wed 05:01:10 AM 40.8611 -74.0916 115° Southeast 387 445 19,000  Level FlightAware ADS-B
Wed 05:01:22 AM 40.8520 -74.0654 115° Southeast 387 445 19,000 -200 Level FlightAware ADS-B
Wed 05:01:40 AM 40.8385 -74.0266 115° Southeast 386 444 18,900 -1,688 Descending FlightAware ADS-B
Wed 05:01:54 AM 40.8277 -73.9958 115° Southeast 386 444 18,100 -3,600 Descending FlightAware ADS-B
Wed 05:02:10 AM 40.8159 -73.9619 115° Southeast 389 448 17,100 -3,319 Descending FlightAware ADS-B
Wed 05:02:41 AM 40.7929 -73.8959 115° Southeast 381 438 15,500 -3,240 Descending FlightAware ADS-B
Wed 05:03:00 AM 40.7794 -73.8576 115° Southeast 372 428 14,400 -3,500 Descending FlightAware ADS-B
Wed 05:03:05 AM 40.7754 -73.8476 118° Southeast 371 427 14,100 -3,000 Descending FlightAware ADS-B
Wed 05:03:10 AM 40.7704 -73.8379 124° Southeast 366 421 13,900 -2,571 Descending FlightAware ADS-B
Wed 05:03:12 AM 40.7677 -73.8337 130° Southeast 386 444 13,800 -1,500 Descending FlightAware ADS-B
Wed 05:03:14 AM 40.7660 -73.8312 132° Southeast 363 418 13,800 -1,333 Level FlightAware ADS-B
Wed 05:03:21 AM 40.7579 -73.8206 135° Southeast 354 407 13,600 -2,757 Descending FlightAware ADS-B
Wed 05:03:51 AM 40.7216 -73.7787 139° Southeast 341 392 12,100 -2,377 Descending FlightAware ADS-B
Wed 05:04:14 AM 40.6952 -73.7485 139° Southeast 316 364 11,500 -1,455 Descending FlightAware ADS-B
Wed 05:04:24 AM 40.6836 -73.7377 145° Southeast 308 354 11,300 -1,263 Descending FlightAware ADS-B
Wed 05:04:33 AM 40.6715 -73.7302 155° Southeast 301 346 11,100 -2,154 Descending FlightAware ADS-B
Wed 05:05:03 AM 40.6339 -73.7111 159° South 293 337 9,900 -2,267 Descending FlightAware ADS-B
Wed 05:05:18 AM 40.6150 -73.7012 158° South 289 333 9,400 -2,200 Descending FlightAware ADS-B
Wed 05:05:33 AM 40.5964 -73.6916 159° South 288 331 8,800 -2,333 Descending FlightAware ADS-B
Wed 05:05:36 AM 40.5927 -73.6897 159° South 288 331 8,700 -2,000 Descending FlightAware ADS-B
Wed 05:05:39 AM 40.5887 -73.6881 163° South 288 331 8,600 -2,250 Descending FlightAware ADS-B
Wed 05:05:44 AM 40.5824 -73.6862 167° South 287 330 8,400 -2,250 Descending FlightAware ADS-B
Wed 05:05:47 AM 40.5783 -73.6852 170° South 287 330 8,300 -2,000 Descending FlightAware ADS-B
Wed 05:05:50 AM 40.5734 -73.6845 174° South 285 328 8,200 -2,250 Descending FlightAware ADS-B
Wed 05:06:03 AM 40.5572 -73.6833 177° South 283 326 7,700 -2,143 Descending FlightAware ADS-B
Wed 05:06:18 AM 40.5376 -73.6826 178° South 280 322 7,200 -2,200 Descending FlightAware ADS-B
Wed 05:06:33 AM 40.5179 -73.6820 179° South 277 319 6,600 -2,357 Descending FlightAware ADS-B
Wed 05:06:46 AM 40.5012 -73.6815 179° South 273 314 6,100 -2,143 Descending FlightAware ADS-B
Wed 05:07:01 AM 40.4820 -73.6812 179° South 269 310 5,600 -2,276 Descending FlightAware ADS-B
Wed 05:07:15 AM 40.4652 -73.6812 180° South 269 310 5,000 -2,667 Descending FlightAware ADS-B
Wed 05:07:19 AM 40.4603 -73.6815 183° South 269 310 4,800 -2,571 Descending FlightAware ADS-B
Wed 05:07:22 AM 40.4564 -73.6821 187° South 270 311 4,700 -2,000 Descending FlightAware ADS-B
Wed 05:07:25 AM 40.4528 -73.6829 190° South 271 312 4,600 -2,250 Descending FlightAware ADS-B
Wed 05:07:30 AM 40.4470 -73.6849 195° South 273 314 4,400 -2,500 Descending FlightAware ADS-B
Wed 05:07:37 AM 40.4376 -73.6889 198° South 272 313 4,100 -2,348 Descending FlightAware ADS-B
Wed 05:07:53 AM 40.4192 -73.6978 200° South 269 310 3,500 -1,875 Descending FlightAware ADS-B
Wed 05:08:09 AM 40.4009 -73.7066 200° South 267 307 3,100 -1,714 Descending FlightAware ADS-B
Wed 05:08:21 AM 40.3874 -73.7148 205° Southwest 270 311 2,700 -2,000 Descending FlightAware ADS-B
Wed 05:08:24 AM 40.3839 -73.7183 217° Southwest 271 312 2,600 -1,500 Descending FlightAware ADS-B
Wed 05:08:33 AM 40.3764 -73.7292 228° Southwest 271 312 2,400 -1,125 Descending FlightAware ADS-B
Wed 05:08:40 AM 40.3723 -73.7391 241° Southwest 270 311 2,300 -783 Descending FlightAware ADS-B
Wed 05:08:56 AM 40.3648 -73.7621 247° West 259 298 2,100 -563 Descending FlightAware ADS-B
Wed 05:09:12 AM 40.3574 -73.7859 248° West 250 288 2,000 -529 Descending FlightAware ADS-B
Wed 05:09:30 AM 40.3499 -73.8098 248° West 240 276 1,800 -727 Descending FlightAware ADS-B
Wed 05:09:45 AM 40.3435 -73.8304 248° West 230 265 1,600 -387 Descending FlightAware ADS-B
Wed 05:10:01 AM 40.3375 -73.8498 248° West 219 252 1,600  Level FlightAware ADS-B
Wed 05:10:08 AM 40.3348 -73.8590 249° West 218 251 1,600  Level FlightAware ADS-B
Wed 05:10:12 AM 40.3338 -73.8640 255° West 218 251 1,600  Level FlightAware ADS-B
Wed 05:10:16 AM 40.3334 -73.8690 264° West 218 251 1,600  Level FlightAware ADS-B
Wed 05:10:20 AM 40.3335 -73.8744 271° West 217 250 1,600  Level FlightAware ADS-B
Wed 05:10:25 AM 40.3345 -73.8809 281° West 217 250 1,600  Level FlightAware ADS-B
Wed 05:10:29 AM 40.3360 -73.8858 292° West 216 249 1,600  Level FlightAware ADS-B
Wed 05:10:33 AM 40.3377 -73.8898 299° West 213 245 1,600  Level FlightAware ADS-B
Wed 05:10:36 AM 40.3397 -73.8932 308° West 211 243 1,600  Level FlightAware ADS-B
Wed 05:10:40 AM 40.3426 -73.8969 316° Northwest 211 243 1,600  Level FlightAware ADS-B
Wed 05:10:43 AM 40.3450 -73.8993 323° Northwest 210 242 1,600  Level FlightAware ADS-B
Wed 05:10:47 AM 40.3485 -73.9018 331° Northwest 209 241 1,600  Level FlightAware ADS-B
Wed 05:10:54 AM 40.3543 -73.9045 340° North 205 236 1,600  Level FlightAware ADS-B
Wed 05:10:57 AM 40.3572 -73.9053 348° North 205 236 1,600  Level FlightAware ADS-B
Wed 05:11:08 AM 40.3675 -73.9070 353° North 203 234 1,600  Level FlightAware ADS-B
Wed 05:11:23 AM 40.3813 -73.9089 354° North 203 234 1,600  Level FlightAware ADS-B
Wed 05:11:35 AM 40.3926 -73.9105 354° North 203 234 1,600  Level FlightAware ADS-B
Wed 05:11:50 AM 40.4072 -73.9125 354° North 204 235 1,600  Level FlightAware ADS-B
Wed 05:12:05 AM 40.4216 -73.9145 354° North 204 235 1,600  Level FlightAware ADS-B
Wed 05:12:21 AM 40.4363 -73.9166 354° North 204 235 1,600  Level FlightAware ADS-B
Wed 05:12:29 AM 40.4437 -73.9176 354° North 204 235 1,600  Level FlightAware ADS-B
Wed 05:12:33 AM 40.4477 -73.9176 360° North 202 232 1,600  Level FlightAware ADS-B
Wed 05:12:37 AM 40.4512 -73.9167 11° North 200 230 1,600  Level FlightAware ADS-B
Wed 05:12:43 AM 40.4562 -73.9139 23° Northeast 192 221 1,600  Level FlightAware ADS-B
Wed 05:12:49 AM 40.4608 -73.9105 29° Northeast 186 214 1,600  Level FlightAware ADS-B
Wed 05:13:05 AM 40.4725 -73.9018 29° Northeast 183 211 1,600  Level FlightAware ADS-B
Wed 05:13:25 AM 40.4865 -73.8911 30° Northeast 171 197 1,600  Level FlightAware ADS-B
Wed 05:14:10 AM 40.5163 -73.8680 31° Northeast 165 190 1,600  Level FlightAware ADS-B
Wed 05:14:47 AM 40.5400 -73.8490 31° Northeast 165 190 1,600 -448 Level FlightAware ADS-B
Wed 05:15:17 AM 40.5590 -73.8350 29° Northeast 145 167 1,100 -933 Descending FlightAware ADS-B
Wed 05:15:32 AM 40.5660 -73.8290 33° Northeast 137 158 900 -750 Descending FlightAware ADS-B
Wed 05:15:57 AM 40.5800 -73.8190 28° Northeast 131 151 600 -655 Descending FlightAware ADS-B
Wed 05:16:27 AM 40.5960 -73.8060 32° Northeast 131 151 300 -600 Descending FlightAware ADS-B
Wed 05:16:52 AM 40.6080 -73.7960 32° Northeast 129 148 -720 Descending FlightAware ADS-B
Wed 05:17:17 AM 40.6220 -73.7860 28° Northeast 129 148  Level FlightAware ADS-B

Login

Don't have an account? Register now (free) for customized features, flight alerts, and more!